sensor_id;sensor_type;location;lat;lon;timestamp;pressure;altitude;pressure_sealevel;temperature
65180;BMP280;51849;47.476;8.084;2022-08-30T00:01:55;96731.16;;;18.46
65180;BMP280;51849;47.476;8.084;2022-08-30T00:04:22;96732.00;;;18.41
65180;BMP280;51849;47.476;8.084;2022-08-30T00:06:47;96726.72;;;18.41
65180;BMP280;51849;47.476;8.084;2022-08-30T00:09:13;96721.97;;;18.39
65180;BMP280;51849;47.476;8.084;2022-08-30T00:11:39;96728.66;;;18.40
65180;BMP280;51849;47.476;8.084;2022-08-30T00:14:04;96724.06;;;18.41
65180;BMP280;51849;47.476;8.084;2022-08-30T00:16:31;96720.72;;;18.40
65180;BMP280;51849;47.476;8.084;2022-08-30T00:19:00;96718.78;;;18.41
65180;BMP280;51849;47.476;8.084;2022-08-30T00:21:26;96714.94;;;18.42
65180;BMP280;51849;47.476;8.084;2022-08-30T00:23:52;96714.88;;;18.34
65180;BMP280;51849;47.476;8.084;2022-08-30T00:26:18;96714.69;;;18.32
65180;BMP280;51849;47.476;8.084;2022-08-30T00:28:44;96710.44;;;18.29
65180;BMP280;51849;47.476;8.084;2022-08-30T00:31:10;96715.88;;;18.31
65180;BMP280;51849;47.476;8.084;2022-08-30T00:33:38;96712.75;;;18.33
65180;BMP280;51849;47.476;8.084;2022-08-30T00:36:04;96709.50;;;18.27
65180;BMP280;51849;47.476;8.084;2022-08-30T00:38:30;96711.78;;;18.23
65180;BMP280;51849;47.476;8.084;2022-08-30T00:40:56;96710.56;;;18.24
65180;BMP280;51849;47.476;8.084;2022-08-30T00:43:26;96704.13;;;18.32
65180;BMP280;51849;47.476;8.084;2022-08-30T00:45:53;96715.22;;;18.31
65180;BMP280;51849;47.476;8.084;2022-08-30T00:48:18;96703.03;;;18.28
65180;BMP280;51849;47.476;8.084;2022-08-30T00:50:48;96700.66;;;18.17
65180;BMP280;51849;47.476;8.084;2022-08-30T00:53:26;96696.66;;;18.03
65180;BMP280;51849;47.476;8.084;2022-08-30T00:55:54;96695.56;;;17.98
65180;BMP280;51849;47.476;8.084;2022-08-30T00:58:25;96698.50;;;17.95
65180;BMP280;51849;47.476;8.084;2022-08-30T01:00:54;96696.91;;;17.92
65180;BMP280;51849;47.476;8.084;2022-08-30T01:03:21;96700.84;;;17.98
65180;BMP280;51849;47.476;8.084;2022-08-30T01:05:49;96697.06;;;17.94
65180;BMP280;51849;47.476;8.084;2022-08-30T01:08:16;96702.19;;;17.92
65180;BMP280;51849;47.476;8.084;2022-08-30T01:10:45;96694.88;;;17.98
65180;BMP280;51849;47.476;8.084;2022-08-30T01:13:11;96694.16;;;17.97
65180;BMP280;51849;47.476;8.084;2022-08-30T01:15:40;96701.94;;;18.03
65180;BMP280;51849;47.476;8.084;2022-08-30T01:18:07;96701.94;;;18.03
65180;BMP280;51849;47.476;8.084;2022-08-30T01:23:19;96704.00;;;17.97
65180;BMP280;51849;47.476;8.084;2022-08-30T01:25:47;96705.31;;;17.90
65180;BMP280;51849;47.476;8.084;2022-08-30T01:28:18;96700.88;;;17.85
65180;BMP280;51849;47.476;8.084;2022-08-30T01:30:44;96701.41;;;17.84
65180;BMP280;51849;47.476;8.084;2022-08-30T01:33:11;96701.09;;;17.87
65180;BMP280;51849;47.476;8.084;2022-08-30T01:35:47;96704.22;;;17.86
65180;BMP280;51849;47.476;8.084;2022-08-30T01:38:15;96704.50;;;17.75
65180;BMP280;51849;47.476;8.084;2022-08-30T01:40:42;96713.94;;;17.70
65180;BMP280;51849;47.476;8.084;2022-08-30T01:43:09;96716.47;;;17.63
65180;BMP280;51849;47.476;8.084;2022-08-30T01:45:35;96724.78;;;17.67
65180;BMP280;51849;47.476;8.084;2022-08-30T01:48:00;96710.00;;;17.64
65180;BMP280;51849;47.476;8.084;2022-08-30T01:50:26;96720.72;;;17.66
65180;BMP280;51849;47.476;8.084;2022-08-30T01:52:52;96725.81;;;17.64
65180;BMP280;51849;47.476;8.084;2022-08-30T01:55:17;96720.88;;;17.60
65180;BMP280;51849;47.476;8.084;2022-08-30T01:57:43;96716.97;;;17.61
65180;BMP280;51849;47.476;8.084;2022-08-30T02:00:10;96705.44;;;17.64
65180;BMP280;51849;47.476;8.084;2022-08-30T02:02:35;96712.81;;;17.66
65180;BMP280;51849;47.476;8.084;2022-08-30T02:05:04;96708.25;;;17.66
65180;BMP280;51849;47.476;8.084;2022-08-30T02:07:30;96703.38;;;17.70
65180;BMP280;51849;47.476;8.084;2022-08-30T02:09:56;96712.53;;;17.69
65180;BMP280;51849;47.476;8.084;2022-08-30T02:12:22;96711.59;;;17.67
65180;BMP280;51849;47.476;8.084;2022-08-30T02:14:47;96716.38;;;17.68
65180;BMP280;51849;47.476;8.084;2022-08-30T02:17:14;96715.34;;;17.71
65180;BMP280;51849;47.476;8.084;2022-08-30T02:19:41;96713.94;;;17.70
65180;BMP280;51849;47.476;8.084;2022-08-30T02:22:07;96710.59;;;17.57
65180;BMP280;51849;47.476;8.084;2022-08-30T02:24:33;96712.03;;;17.58
65180;BMP280;51849;47.476;8.084;2022-08-30T02:26:59;96709.41;;;17.58
65180;BMP280;51849;47.476;8.084;2022-08-30T02:29:25;96701.47;;;17.58
65180;BMP280;51849;47.476;8.084;2022-08-30T02:31:51;96701.16;;;17.61
65180;BMP280;51849;47.476;8.084;2022-08-30T02:34:17;96700.63;;;17.63
65180;BMP280;51849;47.476;8.084;2022-08-30T02:36:43;96698.34;;;17.59
65180;BMP280;51849;47.476;8.084;2022-08-30T02:39:11;96695.69;;;17.59
65180;BMP280;51849;47.476;8.084;2022-08-30T02:41:38;96693.19;;;17.54
65180;BMP280;51849;47.476;8.084;2022-08-30T02:44:05;96699.28;;;17.49
65180;BMP280;51849;47.476;8.084;2022-08-30T02:46:31;96702.41;;;17.47
65180;BMP280;51849;47.476;8.084;2022-08-30T02:48:59;96700.47;;;17.48
65180;BMP280;51849;47.476;8.084;2022-08-30T02:51:25;96701.41;;;17.50
65180;BMP280;51849;47.476;8.084;2022-08-30T02:53:50;96702.81;;;17.51
65180;BMP280;51849;47.476;8.084;2022-08-30T02:56:16;96689.44;;;17.49
65180;BMP280;51849;47.476;8.084;2022-08-30T02:58:42;96682.34;;;17.44
65180;BMP280;51849;47.476;8.084;2022-08-30T03:01:11;96683.38;;;17.41
65180;BMP280;51849;47.476;8.084;2022-08-30T03:03:39;96685.28;;;17.41
65180;BMP280;51849;47.476;8.084;2022-08-30T03:06:05;96682.38;;;17.31
65180;BMP280;51849;47.476;8.084;2022-08-30T03:08:31;96678.81;;;17.29
65180;BMP280;51849;47.476;8.084;2022-08-30T03:10:59;96677.50;;;17.22
65180;BMP280;51849;47.476;8.084;2022-08-30T03:13:25;96670.81;;;17.21
65180;BMP280;51849;47.476;8.084;2022-08-30T03:15:51;96674.34;;;17.24
65180;BMP280;51849;47.476;8.084;2022-08-30T03:18:17;96672.09;;;17.28
65180;BMP280;51849;47.476;8.084;2022-08-30T03:20:46;96672.72;;;17.34
65180;BMP280;51849;47.476;8.084;2022-08-30T03:23:14;96670.31;;;17.36
65180;BMP280;51849;47.476;8.084;2022-08-30T03:25:40;96673.50;;;17.42
65180;BMP280;51849;47.476;8.084;2022-08-30T03:28:06;96674.03;;;17.40
65180;BMP280;51849;47.476;8.084;2022-08-30T03:30:32;96665.94;;;17.38
65180;BMP280;51849;47.476;8.084;2022-08-30T03:32:59;96667.66;;;17.36
65180;BMP280;51849;47.476;8.084;2022-08-30T03:35:27;96667.88;;;17.25
65180;BMP280;51849;47.476;8.084;2022-08-30T03:37:53;96661.06;;;17.29
65180;BMP280;51849;47.476;8.084;2022-08-30T03:40:20;96657.50;;;17.27
65180;BMP280;51849;47.476;8.084;2022-08-30T03:42:46;96659.34;;;17.32
65180;BMP280;51849;47.476;8.084;2022-08-30T03:45:14;96662.56;;;17.38
65180;BMP280;51849;47.476;8.084;2022-08-30T03:47:41;96663.59;;;17.35
65180;BMP280;51849;47.476;8.084;2022-08-30T03:50:07;96655.19;;;17.23
65180;BMP280;51849;47.476;8.084;2022-08-30T03:52:33;96659.59;;;17.21
65180;BMP280;51849;47.476;8.084;2022-08-30T03:54:59;96664.44;;;17.17
65180;BMP280;51849;47.476;8.084;2022-08-30T03:57:26;96670.13;;;17.21
65180;BMP280;51849;47.476;8.084;2022-08-30T03:59:52;96670.94;;;17.16
65180;BMP280;51849;47.476;8.084;2022-08-30T04:02:18;96665.28;;;17.12
65180;BMP280;51849;47.476;8.084;2022-08-30T04:04:45;96664.34;;;17.09
65180;BMP280;51849;47.476;8.084;2022-08-30T04:07:10;96661.38;;;17.13
65180;BMP280;51849;47.476;8.084;2022-08-30T04:09:36;96657.53;;;17.14
65180;BMP280;51849;47.476;8.084;2022-08-30T04:12:05;96662.63;;;17.12
65180;BMP280;51849;47.476;8.084;2022-08-30T04:14:31;96667.06;;;17.04
65180;BMP280;51849;47.476;8.084;2022-08-30T04:16:56;96666.34;;;17.03
65180;BMP280;51849;47.476;8.084;2022-08-30T04:19:22;96677.63;;;17.04
65180;BMP280;51849;47.476;8.084;2022-08-30T04:21:48;96683.59;;;17.04
65180;BMP280;51849;47.476;8.084;2022-08-30T04:24:14;96688.56;;;17.08
65180;BMP280;51849;47.476;8.084;2022-08-30T04:26:40;96689.00;;;17.12
65180;BMP280;51849;47.476;8.084;2022-08-30T04:29:06;96690.19;;;17.11
65180;BMP280;51849;47.476;8.084;2022-08-30T04:31:31;96700.22;;;17.12
65180;BMP280;51849;47.476;8.084;2022-08-30T04:33:57;96698.81;;;17.11
65180;BMP280;51849;47.476;8.084;2022-08-30T04:36:23;96702.44;;;17.08
65180;BMP280;51849;47.476;8.084;2022-08-30T04:38:48;96695.59;;;17.05
65180;BMP280;51849;47.476;8.084;2022-08-30T04:41:16;96698.22;;;17.05
65180;BMP280;51849;47.476;8.084;2022-08-30T04:43:44;96698.09;;;17.11
65180;BMP280;51849;47.476;8.084;2022-08-30T04:46:12;96708.66;;;17.11
65180;BMP280;51849;47.476;8.084;2022-08-30T04:48:38;96712.19;;;17.13
65180;BMP280;51849;47.476;8.084;2022-08-30T04:51:10;96712.50;;;17.10
65180;BMP280;51849;47.476;8.084;2022-08-30T04:53:37;96719.19;;;17.11
65180;BMP280;51849;47.476;8.084;2022-08-30T04:56:07;96717.78;;;17.10
65180;BMP280;51849;47.476;8.084;2022-08-30T04:58:34;96724.25;;;17.09
65180;BMP280;51849;47.476;8.084;2022-08-30T05:01:00;96722.63;;;17.06
65180;BMP280;51849;47.476;8.084;2022-08-30T05:03:26;96721.44;;;17.07
65180;BMP280;51849;47.476;8.084;2022-08-30T05:05:51;96727.06;;;16.98
65180;BMP280;51849;47.476;8.084;2022-08-30T05:08:19;96721.22;;;17.05
65180;BMP280;51849;47.476;8.084;2022-08-30T05:10:48;96725.44;;;17.08
65180;BMP280;51849;47.476;8.084;2022-08-30T05:13:17;96724.25;;;17.09
65180;BMP280;51849;47.476;8.084;2022-08-30T05:15:44;96724.66;;;17.13
65180;BMP280;51849;47.476;8.084;2022-08-30T05:18:11;96728.13;;;17.21
65180;BMP280;51849;47.476;8.084;2022-08-30T05:20:40;96725.16;;;17.24
65180;BMP280;51849;47.476;8.084;2022-08-30T05:23:06;96730.31;;;17.30
65180;BMP280;51849;47.476;8.084;2022-08-30T05:25:36;96731.34;;;17.27
65180;BMP280;51849;47.476;8.084;2022-08-30T05:28:05;96733.78;;;17.38
65180;BMP280;51849;47.476;8.084;2022-08-30T05:30:33;96733.97;;;17.40
65180;BMP280;51849;47.476;8.084;2022-08-30T05:32:59;96726.97;;;17.42
65180;BMP280;51849;47.476;8.084;2022-08-30T05:35:25;96732.50;;;17.52
65180;BMP280;51849;47.476;8.084;2022-08-30T05:37:51;96733.09;;;17.71
65180;BMP280;51849;47.476;8.084;2022-08-30T05:40:19;96733.31;;;18.06
65180;BMP280;51849;47.476;8.084;2022-08-30T05:42:45;96734.91;;;18.30
65180;BMP280;51849;47.476;8.084;2022-08-30T05:45:12;96737.28;;;18.62
65180;BMP280;51849;47.476;8.084;2022-08-30T05:47:38;96736.75;;;18.91
65180;BMP280;51849;47.476;8.084;2022-08-30T05:50:05;96740.06;;;19.12
65180;BMP280;51849;47.476;8.084;2022-08-30T05:52:36;96740.69;;;19.33
65180;BMP280;51849;47.476;8.084;2022-08-30T05:55:04;96731.38;;;19.40
65180;BMP280;51849;47.476;8.084;2022-08-30T05:57:33;96733.47;;;19.34
65180;BMP280;51849;47.476;8.084;2022-08-30T06:00:06;96731.38;;;19.40
65180;BMP280;51849;47.476;8.084;2022-08-30T06:02:32;96720.75;;;19.32
65180;BMP280;51849;47.476;8.084;2022-08-30T06:04:58;96725.84;;;19.30
65180;BMP280;51849;47.476;8.084;2022-08-30T06:07:23;96730.78;;;19.26
65180;BMP280;51849;47.476;8.084;2022-08-30T06:09:49;96730.22;;;19.20
65180;BMP280;51849;47.476;8.084;2022-08-30T06:12:15;96719.81;;;19.22
65180;BMP280;51849;47.476;8.084;2022-08-30T06:14:40;96722.69;;;19.24
65180;BMP280;51849;47.476;8.084;2022-08-30T06:17:06;96720.22;;;19.34
65180;BMP280;51849;47.476;8.084;2022-08-30T06:19:32;96717.56;;;19.26
65180;BMP280;51849;47.476;8.084;2022-08-30T06:21:58;96717.63;;;19.41
65180;BMP280;51849;47.476;8.084;2022-08-30T06:24:25;96715.19;;;19.58
65180;BMP280;51849;47.476;8.084;2022-08-30T06:26:50;96718.63;;;19.81
65180;BMP280;51849;47.476;8.084;2022-08-30T06:29:18;96719.50;;;19.99
65180;BMP280;51849;47.476;8.084;2022-08-30T06:31:44;96725.53;;;20.14
65180;BMP280;51849;47.476;8.084;2022-08-30T06:34:10;96722.72;;;20.27
65180;BMP280;51849;47.476;8.084;2022-08-30T06:36:36;96723.41;;;20.43
65180;BMP280;51849;47.476;8.084;2022-08-30T06:39:05;96723.00;;;20.61
65180;BMP280;51849;47.476;8.084;2022-08-30T06:41:33;96722.47;;;20.70
65180;BMP280;51849;47.476;8.084;2022-08-30T06:44:00;96724.41;;;20.85
65180;BMP280;51849;47.476;8.084;2022-08-30T06:46:33;96719.03;;;21.00
65180;BMP280;51849;47.476;8.084;2022-08-30T06:48:59;96722.19;;;21.14
65180;BMP280;51849;47.476;8.084;2022-08-30T06:51:28;96715.97;;;21.19
65180;BMP280;51849;47.476;8.084;2022-08-30T06:53:55;96716.16;;;21.21
65180;BMP280;51849;47.476;8.084;2022-08-30T06:56:21;96708.00;;;21.19
65180;BMP280;51849;47.476;8.084;2022-08-30T06:58:48;96717.38;;;21.20
65180;BMP280;51849;47.476;8.084;2022-08-30T07:01:21;96716.06;;;21.36
65180;BMP280;51849;47.476;8.084;2022-08-30T07:03:48;96715.75;;;21.32
65180;BMP280;51849;47.476;8.084;2022-08-30T07:06:14;96720.56;;;21.50
65180;BMP280;51849;47.476;8.084;2022-08-30T07:08:40;96717.34;;;21.59
65180;BMP280;51849;47.476;8.084;2022-08-30T07:11:09;96718.28;;;21.79
65180;BMP280;51849;47.476;8.084;2022-08-30T07:13:35;96716.13;;;21.85
65180;BMP280;51849;47.476;8.084;2022-08-30T07:16:08;96719.66;;;21.87
65180;BMP280;51849;47.476;8.084;2022-08-30T07:18:34;96722.28;;;22.12
65180;BMP280;51849;47.476;8.084;2022-08-30T07:21:17;96721.88;;;22.23
65180;BMP280;51849;47.476;8.084;2022-08-30T07:23:44;96722.03;;;22.25
65180;BMP280;51849;47.476;8.084;2022-08-30T07:26:13;96724.16;;;22.26
65180;BMP280;51849;47.476;8.084;2022-08-30T07:28:41;96722.09;;;22.34
65180;BMP280;51849;47.476;8.084;2022-08-30T07:31:09;96726.91;;;22.36
65180;BMP280;51849;47.476;8.084;2022-08-30T07:33:35;96722.16;;;22.51
65180;BMP280;51849;47.476;8.084;2022-08-30T07:36:02;96721.81;;;22.64
65180;BMP280;51849;47.476;8.084;2022-08-30T07:38:29;96721.75;;;22.55
65180;BMP280;51849;47.476;8.084;2022-08-30T07:40:55;96726.72;;;22.68
65180;BMP280;51849;47.476;8.084;2022-08-30T07:43:29;96723.16;;;22.90
65180;BMP280;51849;47.476;8.084;2022-08-30T07:46:03;96721.09;;;22.98
65180;BMP280;51849;47.476;8.084;2022-08-30T07:48:29;96719.78;;;23.16
65180;BMP280;51849;47.476;8.084;2022-08-30T07:50:57;96719.41;;;23.19
65180;BMP280;51849;47.476;8.084;2022-08-30T07:53:23;96724.34;;;23.23
65180;BMP280;51849;47.476;8.084;2022-08-30T07:55:49;96723.13;;;23.33
65180;BMP280;51849;47.476;8.084;2022-08-30T07:58:15;96716.50;;;23.51
65180;BMP280;51849;47.476;8.084;2022-08-30T08:00:40;96712.81;;;23.47
65180;BMP280;51849;47.476;8.084;2022-08-30T08:03:08;96717.91;;;23.52
65180;BMP280;51849;47.476;8.084;2022-08-30T08:05:43;96719.41;;;23.46
65180;BMP280;51849;47.476;8.084;2022-08-30T08:08:09;96726.25;;;23.39
65180;BMP280;51849;47.476;8.084;2022-08-30T08:10:37;96719.91;;;23.61
65180;BMP280;51849;47.476;8.084;2022-08-30T08:13:03;96725.69;;;23.77
65180;BMP280;51849;47.476;8.084;2022-08-30T08:15:29;96721.00;;;24.04
65180;BMP280;51849;47.476;8.084;2022-08-30T08:17:55;96724.69;;;24.18
65180;BMP280;51849;47.476;8.084;2022-08-30T08:20:21;96717.13;;;24.15
65180;BMP280;51849;47.476;8.084;2022-08-30T08:22:47;96719.31;;;23.99
65180;BMP280;51849;47.476;8.084;2022-08-30T08:25:13;96720.72;;;24.00
65180;BMP280;51849;47.476;8.084;2022-08-30T08:27:39;96715.81;;;23.97
65180;BMP280;51849;47.476;8.084;2022-08-30T08:30:06;96719.78;;;24.05
65180;BMP280;51849;47.476;8.084;2022-08-30T08:32:31;96722.44;;;24.05
65180;BMP280;51849;47.476;8.084;2022-08-30T08:34:59;96720.50;;;24.15
65180;BMP280;51849;47.476;8.084;2022-08-30T08:37:25;96721.63;;;24.12
65180;BMP280;51849;47.476;8.084;2022-08-30T08:39:54;96716.22;;;23.93
65180;BMP280;51849;47.476;8.084;2022-08-30T08:45:06;96732.41;;;24.14
65180;BMP280;51849;47.476;8.084;2022-08-30T08:47:53;96725.13;;;24.24
65180;BMP280;51849;47.476;8.084;2022-08-30T08:50:20;96728.09;;;24.28
65180;BMP280;51849;47.476;8.084;2022-08-30T08:52:52;96726.00;;;24.36
65180;BMP280;51849;47.476;8.084;2022-08-30T08:55:45;96724.03;;;24.56
65180;BMP280;51849;47.476;8.084;2022-08-30T08:58:29;96724.31;;;24.60
65180;BMP280;51849;47.476;8.084;2022-08-30T09:00:56;96722.06;;;24.56
65180;BMP280;51849;47.476;8.084;2022-08-30T09:03:26;96726.97;;;24.41
65180;BMP280;51849;47.476;8.084;2022-08-30T09:05:52;96722.22;;;24.39
65180;BMP280;51849;47.476;8.084;2022-08-30T09:08:22;96720.66;;;24.36
65180;BMP280;51849;47.476;8.084;2022-08-30T09:11:19;96717.84;;;24.44
65180;BMP280;51849;47.476;8.084;2022-08-30T09:13:45;96713.06;;;24.52
65180;BMP280;51849;47.476;8.084;2022-08-30T09:22:32;96707.97;;;25.03
65180;BMP280;51849;47.476;8.084;2022-08-30T09:27:39;96703.81;;;25.31
65180;BMP280;51849;47.476;8.084;2022-08-30T09:30:15;96715.66;;;25.58
65180;BMP280;51849;47.476;8.084;2022-08-30T09:37:56;96698.13;;;25.97
65180;BMP280;51849;47.476;8.084;2022-08-30T09:40:36;96695.59;;;26.20
65180;BMP280;51849;47.476;8.084;2022-08-30T09:43:22;96692.00;;;26.27
65180;BMP280;51849;47.476;8.084;2022-08-30T09:46:04;96696.69;;;26.38
65180;BMP280;51849;47.476;8.084;2022-08-30T09:48:43;96693.66;;;26.32
65180;BMP280;51849;47.476;8.084;2022-08-30T09:56:26;96677.72;;;26.78
65180;BMP280;51849;47.476;8.084;2022-08-30T09:58:59;96680.50;;;26.80
65180;BMP280;51849;47.476;8.084;2022-08-30T10:01:31;96677.03;;;26.66
65180;BMP280;51849;47.476;8.084;2022-08-30T10:06:51;96673.47;;;26.52
65180;BMP280;51849;47.476;8.084;2022-08-30T10:12:06;96667.66;;;26.44
65180;BMP280;51849;47.476;8.084;2022-08-30T10:15:16;96668.81;;;26.41
65180;BMP280;51849;47.476;8.084;2022-08-30T10:17:55;96669.22;;;26.70
65180;BMP280;51849;47.476;8.084;2022-08-30T10:20:54;96672.25;;;26.76
65180;BMP280;51849;47.476;8.084;2022-08-30T10:23:28;96668.19;;;26.64
65180;BMP280;51849;47.476;8.084;2022-08-30T10:26:04;96664.59;;;26.71
65180;BMP280;51849;47.476;8.084;2022-08-30T10:28:57;96657.94;;;26.83
65180;BMP280;51849;47.476;8.084;2022-08-30T10:34:03;96652.06;;;27.08
65180;BMP280;51849;47.476;8.084;2022-08-30T10:36:34;96654.34;;;27.25
65180;BMP280;51849;47.476;8.084;2022-08-30T10:39:04;96657.00;;;27.59
65180;BMP280;51849;47.476;8.084;2022-08-30T10:41:41;96656.75;;;27.78
65180;BMP280;51849;47.476;8.084;2022-08-30T10:49:18;96654.56;;;27.52
65180;BMP280;51849;47.476;8.084;2022-08-30T10:54:34;96641.41;;;27.44
65180;BMP280;51849;47.476;8.084;2022-08-30T10:57:01;96649.31;;;27.54
65180;BMP280;51849;47.476;8.084;2022-08-30T10:59:29;96646.00;;;27.67
65180;BMP280;51849;47.476;8.084;2022-08-30T11:13:25;96643.94;;;27.65
65180;BMP280;51849;47.476;8.084;2022-08-30T11:18:17;96637.75;;;27.74
65180;BMP280;51849;47.476;8.084;2022-08-30T11:20:47;96639.41;;;27.93
65180;BMP280;51849;47.476;8.084;2022-08-30T11:23:33;96646.88;;;27.94
65180;BMP280;51849;47.476;8.084;2022-08-30T11:26:04;96641.91;;;28.14
65180;BMP280;51849;47.476;8.084;2022-08-30T11:31:07;96641.19;;;28.13
65180;BMP280;51849;47.476;8.084;2022-08-30T11:33:44;96644.69;;;28.16
65180;BMP280;51849;47.476;8.084;2022-08-30T11:41:52;96636.91;;;28.33
65180;BMP280;51849;47.476;8.084;2022-08-30T11:46:53;96640.91;;;28.32
65180;BMP280;51849;47.476;8.084;2022-08-30T11:54:57;96635.50;;;28.71
65180;BMP280;51849;47.476;8.084;2022-08-30T11:57:52;96638.81;;;28.83
65180;BMP280;51849;47.476;8.084;2022-08-30T12:10:52;96611.81;;;29.77
65180;BMP280;51849;47.476;8.084;2022-08-30T12:15:57;96597.88;;;29.38
65180;BMP280;51849;47.476;8.084;2022-08-30T12:18:32;96591.19;;;29.39
65180;BMP280;51849;47.476;8.084;2022-08-30T12:23:52;96589.13;;;29.24
65180;BMP280;51849;47.476;8.084;2022-08-30T12:26:32;96588.13;;;29.18
65180;BMP280;51849;47.476;8.084;2022-08-30T12:29:17;96582.41;;;28.96
65180;BMP280;51849;47.476;8.084;2022-08-30T12:34:28;96590.59;;;28.46
65180;BMP280;51849;47.476;8.084;2022-08-30T12:44:36;96586.84;;;28.51
65180;BMP280;51849;47.476;8.084;2022-08-30T12:47:03;96592.34;;;28.80
65180;BMP280;51849;47.476;8.084;2022-08-30T12:49:33;96587.47;;;29.17
65180;BMP280;51849;47.476;8.084;2022-08-30T12:54:41;96575.63;;;29.22
65180;BMP280;51849;47.476;8.084;2022-08-30T12:57:11;96579.81;;;29.54
65180;BMP280;51849;47.476;8.084;2022-08-30T12:59:45;96574.09;;;29.62
65180;BMP280;51849;47.476;8.084;2022-08-30T13:02:23;96575.34;;;29.74
65180;BMP280;51849;47.476;8.084;2022-08-30T13:04:51;96567.84;;;29.57
65180;BMP280;51849;47.476;8.084;2022-08-30T13:07:43;96566.19;;;29.79
65180;BMP280;51849;47.476;8.084;2022-08-30T13:10:16;96556.13;;;29.51
65180;BMP280;51849;47.476;8.084;2022-08-30T13:13:02;96551.53;;;29.82
65180;BMP280;51849;47.476;8.084;2022-08-30T13:15:33;96547.06;;;29.73
65180;BMP280;51849;47.476;8.084;2022-08-30T13:18:31;96536.66;;;29.66
65180;BMP280;51849;47.476;8.084;2022-08-30T13:23:55;96537.25;;;29.35
65180;BMP280;51849;47.476;8.084;2022-08-30T13:26:23;96521.31;;;29.39
65180;BMP280;51849;47.476;8.084;2022-08-30T13:28:55;96522.44;;;29.50
65180;BMP280;51849;47.476;8.084;2022-08-30T13:31:25;96520.47;;;29.08
65180;BMP280;51849;47.476;8.084;2022-08-30T13:33:52;96512.50;;;29.10
65180;BMP280;51849;47.476;8.084;2022-08-30T13:36:20;96513.84;;;28.95
65180;BMP280;51849;47.476;8.084;2022-08-30T13:38:46;96508.28;;;28.91
65180;BMP280;51849;47.476;8.084;2022-08-30T13:41:14;96502.63;;;28.72
65180;BMP280;51849;47.476;8.084;2022-08-30T13:43:40;96500.22;;;28.78
65180;BMP280;51849;47.476;8.084;2022-08-30T13:46:07;96495.94;;;28.86
65180;BMP280;51849;47.476;8.084;2022-08-30T13:48:33;96496.34;;;28.94
65180;BMP280;51849;47.476;8.084;2022-08-30T13:51:02;96507.06;;;28.94
65180;BMP280;51849;47.476;8.084;2022-08-30T13:53:28;96501.63;;;28.79
65180;BMP280;51849;47.476;8.084;2022-08-30T13:55:54;96506.41;;;28.80
65180;BMP280;51849;47.476;8.084;2022-08-30T13:58:19;96509.00;;;28.51
65180;BMP280;51849;47.476;8.084;2022-08-30T14:00:50;96512.09;;;28.59
65180;BMP280;51849;47.476;8.084;2022-08-30T14:03:16;96510.38;;;28.66
65180;BMP280;51849;47.476;8.084;2022-08-30T14:05:42;96516.28;;;28.62
65180;BMP280;51849;47.476;8.084;2022-08-30T14:08:10;96525.88;;;28.54
65180;BMP280;51849;47.476;8.084;2022-08-30T14:10:38;96524.13;;;28.58
65180;BMP280;51849;47.476;8.084;2022-08-30T14:13:04;96523.59;;;28.48
65180;BMP280;51849;47.476;8.084;2022-08-30T14:15:31;96528.69;;;28.56
65180;BMP280;51849;47.476;8.084;2022-08-30T14:17:57;96527.19;;;28.66
65180;BMP280;51849;47.476;8.084;2022-08-30T14:20:23;96531.97;;;28.54
65180;BMP280;51849;47.476;8.084;2022-08-30T14:22:54;96520.03;;;28.57
65180;BMP280;51849;47.476;8.084;2022-08-30T14:25:20;96516.78;;;28.59
65180;BMP280;51849;47.476;8.084;2022-08-30T14:27:45;96523.72;;;28.50
65180;BMP280;51849;47.476;8.084;2022-08-30T14:30:11;96515.75;;;28.52
65180;BMP280;51849;47.476;8.084;2022-08-30T14:32:37;96513.66;;;28.37
65180;BMP280;51849;47.476;8.084;2022-08-30T14:35:03;96510.66;;;28.31
65180;BMP280;51849;47.476;8.084;2022-08-30T14:37:29;96515.81;;;28.27
65180;BMP280;51849;47.476;8.084;2022-08-30T14:39:55;96505.59;;;28.24
65180;BMP280;51849;47.476;8.084;2022-08-30T14:42:21;96499.31;;;28.19
65180;BMP280;51849;47.476;8.084;2022-08-30T14:44:46;96504.06;;;28.07
65180;BMP280;51849;47.476;8.084;2022-08-30T14:47:15;96498.13;;;28.09
65180;BMP280;51849;47.476;8.084;2022-08-30T14:49:43;96503.84;;;28.03
65180;BMP280;51849;47.476;8.084;2022-08-30T14:52:11;96491.44;;;27.96
65180;BMP280;51849;47.476;8.084;2022-08-30T14:54:36;96505.94;;;28.05
65180;BMP280;51849;47.476;8.084;2022-08-30T14:57:02;96483.56;;;28.00
65180;BMP280;51849;47.476;8.084;2022-08-30T14:59:28;96492.25;;;27.99
65180;BMP280;51849;47.476;8.084;2022-08-30T15:01:54;96476.84;;;27.99
65180;BMP280;51849;47.476;8.084;2022-08-30T15:04:22;96477.03;;;28.03
65180;BMP280;51849;47.476;8.084;2022-08-30T15:06:48;96479.13;;;28.05
65180;BMP280;51849;47.476;8.084;2022-08-30T15:09:18;96474.47;;;28.05
65180;BMP280;51849;47.476;8.084;2022-08-30T15:11:45;96475.22;;;27.94
65180;BMP280;51849;47.476;8.084;2022-08-30T15:14:11;96473.31;;;27.83
65180;BMP280;51849;47.476;8.084;2022-08-30T15:16:41;96472.63;;;27.83
65180;BMP280;51849;47.476;8.084;2022-08-30T15:19:08;96462.69;;;27.85
65180;BMP280;51849;47.476;8.084;2022-08-30T15:21:38;96466.94;;;27.77
65180;BMP280;51849;47.476;8.084;2022-08-30T15:24:05;96463.41;;;27.86
65180;BMP280;51849;47.476;8.084;2022-08-30T15:26:31;96462.31;;;28.04
65180;BMP280;51849;47.476;8.084;2022-08-30T15:28:57;96465.44;;;28.12
65180;BMP280;51849;47.476;8.084;2022-08-30T15:31:26;96476.16;;;28.12
65180;BMP280;51849;47.476;8.084;2022-08-30T15:33:57;96479.63;;;28.15
65180;BMP280;51849;47.476;8.084;2022-08-30T15:36:24;96480.44;;;28.17
65180;BMP280;51849;47.476;8.084;2022-08-30T15:38:54;96480.75;;;28.23
65180;BMP280;51849;47.476;8.084;2022-08-30T15:41:20;96478.38;;;28.29
65180;BMP280;51849;47.476;8.084;2022-08-30T15:43:47;96471.03;;;28.30
65180;BMP280;51849;47.476;8.084;2022-08-30T15:48:41;96473.91;;;28.20
65180;BMP280;51849;47.476;8.084;2022-08-30T15:51:07;96475.28;;;28.21
65180;BMP280;51849;47.476;8.084;2022-08-30T15:53:33;96472.16;;;28.00
65180;BMP280;51849;47.476;8.084;2022-08-30T15:55:59;96466.31;;;28.03
65180;BMP280;51849;47.476;8.084;2022-08-30T15:58:26;96460.84;;;27.88
65180;BMP280;51849;47.476;8.084;2022-08-30T16:00:51;96453.25;;;27.84
65180;BMP280;51849;47.476;8.084;2022-08-30T16:03:17;96454.13;;;27.75